sensor_id;sensor_type;location;lat;lon;timestamp;P1;durP1;ratioP1;P2;durP2;ratioP2
53309;SDS011;39197;53.200;5.792;2022-12-05T00:01:55;33.28;;;22.02;;
53309;SDS011;39197;53.200;5.792;2022-12-05T00:04:20;37.00;;;23.55;;
53309;SDS011;39197;53.200;5.792;2022-12-05T00:06:46;36.15;;;20.85;;
53309;SDS011;39197;53.200;5.792;2022-12-05T00:09:12;35.20;;;23.05;;
53309;SDS011;39197;53.200;5.792;2022-12-05T00:11:39;34.70;;;21.85;;
53309;SDS011;39197;53.200;5.792;2022-12-05T00:14:07;31.08;;;20.73;;
53309;SDS011;39197;53.200;5.792;2022-12-05T00:16:34;33.03;;;21.90;;
53309;SDS011;39197;53.200;5.792;2022-12-05T00:19:02;34.88;;;22.20;;
53309;SDS011;39197;53.200;5.792;2022-12-05T00:21:29;31.10;;;20.88;;
53309;SDS011;39197;53.200;5.792;2022-12-05T00:23:57;33.05;;;20.58;;
53309;SDS011;39197;53.200;5.792;2022-12-05T00:26:24;32.08;;;20.75;;
53309;SDS011;39197;53.200;5.792;2022-12-05T00:28:51;28.83;;;19.23;;
53309;SDS011;39197;53.200;5.792;2022-12-05T00:31:18;30.10;;;19.95;;
53309;SDS011;39197;53.200;5.792;2022-12-05T00:33:46;26.73;;;18.50;;
53309;SDS011;39197;53.200;5.792;2022-12-05T00:36:13;28.15;;;19.55;;
53309;SDS011;39197;53.200;5.792;2022-12-05T00:38:49;30.48;;;19.73;;
53309;SDS011;39197;53.200;5.792;2022-12-05T00:41:20;25.88;;;18.92;;
53309;SDS011;39197;53.200;5.792;2022-12-05T00:43:47;29.52;;;19.25;;
53309;SDS011;39197;53.200;5.792;2022-12-05T00:46:15;29.98;;;18.13;;
53309;SDS011;39197;53.200;5.792;2022-12-05T00:48:42;26.20;;;16.45;;
53309;SDS011;39197;53.200;5.792;2022-12-05T00:51:10;26.92;;;17.00;;
53309;SDS011;39197;53.200;5.792;2022-12-05T00:53:37;30.23;;;19.23;;
53309;SDS011;39197;53.200;5.792;2022-12-05T00:56:05;23.48;;;16.50;;
53309;SDS011;39197;53.200;5.792;2022-12-05T00:58:35;27.88;;;17.67;;
53309;SDS011;39197;53.200;5.792;2022-12-05T01:01:08;27.02;;;18.33;;
53309;SDS011;39197;53.200;5.792;2022-12-05T01:03:39;27.52;;;16.70;;
53309;SDS011;39197;53.200;5.792;2022-12-05T01:06:06;27.58;;;17.40;;
53309;SDS011;39197;53.200;5.792;2022-12-05T01:08:33;28.52;;;18.67;;
53309;SDS011;39197;53.200;5.792;2022-12-05T01:10:59;28.15;;;19.27;;
53309;SDS011;39197;53.200;5.792;2022-12-05T01:13:26;30.10;;;17.95;;
53309;SDS011;39197;53.200;5.792;2022-12-05T01:15:52;28.08;;;19.58;;
53309;SDS011;39197;53.200;5.792;2022-12-05T01:18:18;29.95;;;21.05;;
53309;SDS011;39197;53.200;5.792;2022-12-05T01:20:45;28.08;;;19.58;;
53309;SDS011;39197;53.200;5.792;2022-12-05T01:23:11;29.45;;;20.60;;
53309;SDS011;39197;53.200;5.792;2022-12-05T01:25:38;27.85;;;18.20;;
53309;SDS011;39197;53.200;5.792;2022-12-05T01:28:05;29.40;;;20.33;;
53309;SDS011;39197;53.200;5.792;2022-12-05T01:30:31;28.33;;;19.85;;
53309;SDS011;39197;53.200;5.792;2022-12-05T01:32:57;29.20;;;19.13;;
53309;SDS011;39197;53.200;5.792;2022-12-05T01:35:26;31.42;;;19.42;;
53309;SDS011;39197;53.200;5.792;2022-12-05T01:37:51;25.55;;;18.33;;
53309;SDS011;39197;53.200;5.792;2022-12-05T01:40:17;28.27;;;18.58;;
53309;SDS011;39197;53.200;5.792;2022-12-05T01:42:43;27.23;;;18.25;;
53309;SDS011;39197;53.200;5.792;2022-12-05T01:45:13;32.17;;;19.58;;
53309;SDS011;39197;53.200;5.792;2022-12-05T01:50:07;30.10;;;17.63;;
53309;SDS011;39197;53.200;5.792;2022-12-05T01:52:33;27.02;;;17.77;;
53309;SDS011;39197;53.200;5.792;2022-12-05T01:55:03;31.23;;;19.13;;
53309;SDS011;39197;53.200;5.792;2022-12-05T01:57:32;27.33;;;18.60;;
53309;SDS011;39197;53.200;5.792;2022-12-05T02:00:04;24.08;;;16.08;;
53309;SDS011;39197;53.200;5.792;2022-12-05T02:02:35;25.60;;;17.23;;
53309;SDS011;39197;53.200;5.792;2022-12-05T02:05:05;28.08;;;17.77;;
53309;SDS011;39197;53.200;5.792;2022-12-05T02:07:35;26.92;;;17.83;;
53309;SDS011;39197;53.200;5.792;2022-12-05T02:10:04;26.08;;;16.90;;
53309;SDS011;39197;53.200;5.792;2022-12-05T02:12:31;25.15;;;16.63;;
53309;SDS011;39197;53.200;5.792;2022-12-05T02:15:04;24.27;;;14.00;;
53309;SDS011;39197;53.200;5.792;2022-12-05T02:23:18;18.48;;;11.25;;
53309;SDS011;39197;53.200;5.792;2022-12-05T02:34:24;19.00;;;11.90;;
53309;SDS011;39197;53.200;5.792;2022-12-05T02:37:04;14.45;;;10.60;;
53309;SDS011;39197;53.200;5.792;2022-12-05T02:39:42;21.93;;;10.90;;
53309;SDS011;39197;53.200;5.792;2022-12-05T02:42:12;16.02;;;9.63;;
53309;SDS011;39197;53.200;5.792;2022-12-05T02:44:46;15.88;;;10.02;;
53309;SDS011;39197;53.200;5.792;2022-12-05T02:47:18;15.70;;;9.90;;
53309;SDS011;39197;53.200;5.792;2022-12-05T02:49:48;12.68;;;8.88;;
53309;SDS011;39197;53.200;5.792;2022-12-05T02:52:17;12.68;;;8.40;;
53309;SDS011;39197;53.200;5.792;2022-12-05T02:54:43;12.85;;;8.98;;
53309;SDS011;39197;53.200;5.792;2022-12-05T02:57:12;14.15;;;7.75;;
53309;SDS011;39197;53.200;5.792;2022-12-05T02:59:39;12.98;;;8.23;;
53309;SDS011;39197;53.200;5.792;2022-12-05T03:02:07;8.93;;;6.90;;
53309;SDS011;39197;53.200;5.792;2022-12-05T03:04:46;12.35;;;7.30;;
53309;SDS011;39197;53.200;5.792;2022-12-05T03:07:12;12.85;;;7.22;;
53309;SDS011;39197;53.200;5.792;2022-12-05T03:09:40;13.50;;;6.28;;
53309;SDS011;39197;53.200;5.792;2022-12-05T03:12:13;12.00;;;7.00;;
53309;SDS011;39197;53.200;5.792;2022-12-05T03:15:02;9.30;;;6.10;;
53309;SDS011;39197;53.200;5.792;2022-12-05T03:17:33;10.57;;;5.93;;
53309;SDS011;39197;53.200;5.792;2022-12-05T03:20:06;9.57;;;6.25;;
53309;SDS011;39197;53.200;5.792;2022-12-05T03:25:13;11.20;;;7.13;;
53309;SDS011;39197;53.200;5.792;2022-12-05T03:27:43;13.13;;;6.78;;
53309;SDS011;39197;53.200;5.792;2022-12-05T03:30:15;10.65;;;5.97;;
53309;SDS011;39197;53.200;5.792;2022-12-05T03:35:36;10.93;;;6.13;;
53309;SDS011;39197;53.200;5.792;2022-12-05T03:38:10;12.75;;;6.57;;
53309;SDS011;39197;53.200;5.792;2022-12-05T03:40:41;13.00;;;7.25;;
53309;SDS011;39197;53.200;5.792;2022-12-05T03:43:20;12.32;;;6.40;;
53309;SDS011;39197;53.200;5.792;2022-12-05T03:48:32;12.50;;;6.50;;
53309;SDS011;39197;53.200;5.792;2022-12-05T03:50:58;16.25;;;7.05;;
53309;SDS011;39197;53.200;5.792;2022-12-05T03:56:28;17.30;;;7.53;;
53309;SDS011;39197;53.200;5.792;2022-12-05T04:01:58;11.20;;;6.50;;
53309;SDS011;39197;53.200;5.792;2022-12-05T04:04:35;10.35;;;6.38;;
53309;SDS011;39197;53.200;5.792;2022-12-05T04:07:04;14.93;;;7.95;;
53309;SDS011;39197;53.200;5.792;2022-12-05T04:09:37;13.77;;;6.88;;
53309;SDS011;39197;53.200;5.792;2022-12-05T04:12:10;12.88;;;7.50;;
53309;SDS011;39197;53.200;5.792;2022-12-05T04:14:44;18.98;;;7.63;;
53309;SDS011;39197;53.200;5.792;2022-12-05T04:17:36;11.52;;;7.10;;
53309;SDS011;39197;53.200;5.792;2022-12-05T04:20:17;13.75;;;8.25;;
53309;SDS011;39197;53.200;5.792;2022-12-05T04:23:12;14.18;;;6.68;;
53309;SDS011;39197;53.200;5.792;2022-12-05T04:25:49;15.13;;;7.45;;
53309;SDS011;39197;53.200;5.792;2022-12-05T04:28:44;16.92;;;6.97;;
53309;SDS011;39197;53.200;5.792;2022-12-05T04:31:23;12.73;;;6.93;;
53309;SDS011;39197;53.200;5.792;2022-12-05T04:33:54;13.57;;;8.15;;
53309;SDS011;39197;53.200;5.792;2022-12-05T04:36:28;14.68;;;7.43;;
53309;SDS011;39197;53.200;5.792;2022-12-05T04:39:03;16.08;;;8.05;;
53309;SDS011;39197;53.200;5.792;2022-12-05T04:44:13;19.27;;;8.32;;
53309;SDS011;39197;53.200;5.792;2022-12-05T04:46:43;18.00;;;8.48;;
53309;SDS011;39197;53.200;5.792;2022-12-05T04:49:14;16.67;;;8.35;;
53309;SDS011;39197;53.200;5.792;2022-12-05T04:51:44;20.13;;;8.85;;
53309;SDS011;39197;53.200;5.792;2022-12-05T04:54:32;20.60;;;8.77;;
53309;SDS011;39197;53.200;5.792;2022-12-05T04:57:11;14.60;;;7.53;;
53309;SDS011;39197;53.200;5.792;2022-12-05T04:59:49;17.85;;;8.38;;
53309;SDS011;39197;53.200;5.792;2022-12-05T05:02:17;18.77;;;8.63;;
53309;SDS011;39197;53.200;5.792;2022-12-05T05:04:48;14.07;;;8.93;;
53309;SDS011;39197;53.200;5.792;2022-12-05T05:07:17;19.58;;;9.88;;
53309;SDS011;39197;53.200;5.792;2022-12-05T05:09:43;18.23;;;9.93;;
53309;SDS011;39197;53.200;5.792;2022-12-05T05:12:09;16.35;;;9.35;;
53309;SDS011;39197;53.200;5.792;2022-12-05T05:14:36;17.38;;;9.77;;
53309;SDS011;39197;53.200;5.792;2022-12-05T05:17:02;21.85;;;10.02;;
53309;SDS011;39197;53.200;5.792;2022-12-05T05:19:28;22.17;;;9.93;;
53309;SDS011;39197;53.200;5.792;2022-12-05T05:21:54;21.38;;;9.70;;
53309;SDS011;39197;53.200;5.792;2022-12-05T05:24:19;24.30;;;9.73;;
53309;SDS011;39197;53.200;5.792;2022-12-05T05:26:47;19.25;;;8.98;;
53309;SDS011;39197;53.200;5.792;2022-12-05T05:29:13;18.73;;;9.52;;
53309;SDS011;39197;53.200;5.792;2022-12-05T05:31:41;19.08;;;10.43;;
53309;SDS011;39197;53.200;5.792;2022-12-05T05:34:08;19.88;;;10.60;;
53309;SDS011;39197;53.200;5.792;2022-12-05T05:36:34;16.42;;;9.07;;
53309;SDS011;39197;53.200;5.792;2022-12-05T05:39:00;18.35;;;9.98;;
53309;SDS011;39197;53.200;5.792;2022-12-05T05:41:29;23.92;;;9.93;;
53309;SDS011;39197;53.200;5.792;2022-12-05T05:43:56;18.58;;;9.40;;
53309;SDS011;39197;53.200;5.792;2022-12-05T05:46:24;20.08;;;9.57;;
53309;SDS011;39197;53.200;5.792;2022-12-05T05:48:51;16.60;;;9.68;;
53309;SDS011;39197;53.200;5.792;2022-12-05T05:51:17;16.80;;;9.80;;
53309;SDS011;39197;53.200;5.792;2022-12-05T05:53:44;16.48;;;8.77;;
53309;SDS011;39197;53.200;5.792;2022-12-05T05:56:11;15.88;;;8.15;;
53309;SDS011;39197;53.200;5.792;2022-12-05T05:58:38;16.23;;;9.52;;
53309;SDS011;39197;53.200;5.792;2022-12-05T06:01:05;19.58;;;9.88;;
53309;SDS011;39197;53.200;5.792;2022-12-05T06:03:32;16.05;;;8.80;;
53309;SDS011;39197;53.200;5.792;2022-12-05T06:05:59;16.00;;;9.95;;
53309;SDS011;39197;53.200;5.792;2022-12-05T06:08:30;15.05;;;8.48;;
53309;SDS011;39197;53.200;5.792;2022-12-05T06:10:57;16.88;;;9.05;;
53309;SDS011;39197;53.200;5.792;2022-12-05T06:13:23;24.60;;;9.55;;
53309;SDS011;39197;53.200;5.792;2022-12-05T06:15:49;18.85;;;9.13;;
53309;SDS011;39197;53.200;5.792;2022-12-05T06:18:14;15.95;;;9.35;;
53309;SDS011;39197;53.200;5.792;2022-12-05T06:20:40;18.02;;;8.40;;
53309;SDS011;39197;53.200;5.792;2022-12-05T06:23:06;16.80;;;9.90;;
53309;SDS011;39197;53.200;5.792;2022-12-05T06:25:31;21.00;;;10.35;;
53309;SDS011;39197;53.200;5.792;2022-12-05T06:27:57;18.02;;;9.25;;
53309;SDS011;39197;53.200;5.792;2022-12-05T06:30:23;18.38;;;10.57;;
53309;SDS011;39197;53.200;5.792;2022-12-05T06:32:49;17.85;;;9.55;;
53309;SDS011;39197;53.200;5.792;2022-12-05T06:35:14;19.85;;;9.52;;
53309;SDS011;39197;53.200;5.792;2022-12-05T06:37:44;19.20;;;8.30;;
53309;SDS011;39197;53.200;5.792;2022-12-05T06:40:14;17.77;;;8.95;;
53309;SDS011;39197;53.200;5.792;2022-12-05T06:42:39;23.58;;;9.82;;
53309;SDS011;39197;53.200;5.792;2022-12-05T06:45:05;18.27;;;9.00;;
53309;SDS011;39197;53.200;5.792;2022-12-05T06:47:31;14.55;;;7.90;;
53309;SDS011;39197;53.200;5.792;2022-12-05T06:49:57;15.73;;;8.93;;
53309;SDS011;39197;53.200;5.792;2022-12-05T06:52:22;19.60;;;9.35;;
53309;SDS011;39197;53.200;5.792;2022-12-05T06:54:48;17.67;;;9.10;;
53309;SDS011;39197;53.200;5.792;2022-12-05T06:57:14;21.67;;;9.10;;
53309;SDS011;39197;53.200;5.792;2022-12-05T06:59:40;15.57;;;8.73;;
53309;SDS011;39197;53.200;5.792;2022-12-05T07:02:06;16.95;;;9.27;;
53309;SDS011;39197;53.200;5.792;2022-12-05T07:04:33;15.82;;;7.22;;
53309;SDS011;39197;53.200;5.792;2022-12-05T07:07:01;15.50;;;6.47;;
53309;SDS011;39197;53.200;5.792;2022-12-05T07:09:27;19.40;;;10.15;;
53309;SDS011;39197;53.200;5.792;2022-12-05T07:19:27;13.05;;;7.20;;
53309;SDS011;39197;53.200;5.792;2022-12-05T07:21:53;23.50;;;9.35;;
53309;SDS011;39197;53.200;5.792;2022-12-05T07:24:18;26.98;;;9.02;;
53309;SDS011;39197;53.200;5.792;2022-12-05T07:26:44;19.60;;;7.88;;
53309;SDS011;39197;53.200;5.792;2022-12-05T07:29:12;20.73;;;7.63;;
53309;SDS011;39197;53.200;5.792;2022-12-05T07:31:37;13.75;;;5.78;;
53309;SDS011;39197;53.200;5.792;2022-12-05T07:34:03;24.33;;;8.07;;
53309;SDS011;39197;53.200;5.792;2022-12-05T07:36:29;25.08;;;6.95;;
53309;SDS011;39197;53.200;5.792;2022-12-05T07:38:55;22.63;;;7.13;;
53309;SDS011;39197;53.200;5.792;2022-12-05T07:41:23;17.25;;;6.43;;
53309;SDS011;39197;53.200;5.792;2022-12-05T07:43:51;22.30;;;6.75;;
53309;SDS011;39197;53.200;5.792;2022-12-05T07:46:20;17.10;;;6.30;;
53309;SDS011;39197;53.200;5.792;2022-12-05T07:48:47;19.23;;;7.05;;
53309;SDS011;39197;53.200;5.792;2022-12-05T07:51:13;20.85;;;6.93;;
53309;SDS011;39197;53.200;5.792;2022-12-05T07:53:39;18.15;;;5.88;;
53309;SDS011;39197;53.200;5.792;2022-12-05T07:56:08;18.83;;;7.57;;
53309;SDS011;39197;53.200;5.792;2022-12-05T07:58:38;11.52;;;5.53;;
53309;SDS011;39197;53.200;5.792;2022-12-05T08:01:07;17.05;;;6.60;;
53309;SDS011;39197;53.200;5.792;2022-12-05T08:03:46;13.40;;;5.53;;
53309;SDS011;39197;53.200;5.792;2022-12-05T08:06:16;16.88;;;6.05;;
53309;SDS011;39197;53.200;5.792;2022-12-05T08:08:44;14.40;;;6.82;;
53309;SDS011;39197;53.200;5.792;2022-12-05T08:11:15;15.35;;;6.22;;
53309;SDS011;39197;53.200;5.792;2022-12-05T08:13:42;17.48;;;6.15;;
53309;SDS011;39197;53.200;5.792;2022-12-05T08:16:09;11.27;;;5.80;;
53309;SDS011;39197;53.200;5.792;2022-12-05T08:18:37;14.15;;;6.35;;
53309;SDS011;39197;53.200;5.792;2022-12-05T08:21:11;16.83;;;5.25;;
53309;SDS011;39197;53.200;5.792;2022-12-05T08:23:41;16.10;;;5.75;;
53309;SDS011;39197;53.200;5.792;2022-12-05T08:28:37;14.15;;;6.03;;
53309;SDS011;39197;53.200;5.792;2022-12-05T08:33:57;20.60;;;6.78;;
53309;SDS011;39197;53.200;5.792;2022-12-05T08:36:27;13.90;;;5.63;;
53309;SDS011;39197;53.200;5.792;2022-12-05T08:38:54;18.05;;;6.55;;
53309;SDS011;39197;53.200;5.792;2022-12-05T08:41:25;13.65;;;6.82;;
53309;SDS011;39197;53.200;5.792;2022-12-05T08:43:53;15.75;;;7.25;;
53309;SDS011;39197;53.200;5.792;2022-12-05T08:46:33;21.77;;;11.30;;
53309;SDS011;39197;53.200;5.792;2022-12-05T08:49:02;18.70;;;7.55;;
53309;SDS011;39197;53.200;5.792;2022-12-05T08:51:29;14.52;;;6.20;;
53309;SDS011;39197;53.200;5.792;2022-12-05T08:53:55;18.05;;;6.65;;
53309;SDS011;39197;53.200;5.792;2022-12-05T08:56:52;18.08;;;7.22;;
53309;SDS011;39197;53.200;5.792;2022-12-05T08:59:18;23.73;;;7.07;;
53309;SDS011;39197;53.200;5.792;2022-12-05T09:01:47;20.10;;;6.60;;
53309;SDS011;39197;53.200;5.792;2022-12-05T09:04:16;16.80;;;6.78;;
53309;SDS011;39197;53.200;5.792;2022-12-05T09:06:42;19.67;;;6.75;;
53309;SDS011;39197;53.200;5.792;2022-12-05T09:09:15;15.10;;;6.32;;
53309;SDS011;39197;53.200;5.792;2022-12-05T09:11:42;14.75;;;5.72;;
53309;SDS011;39197;53.200;5.792;2022-12-05T09:14:23;17.25;;;6.05;;
53309;SDS011;39197;53.200;5.792;2022-12-05T09:17:19;13.07;;;6.05;;
53309;SDS011;39197;53.200;5.792;2022-12-05T09:19:52;15.05;;;6.25;;
53309;SDS011;39197;53.200;5.792;2022-12-05T09:22:19;19.10;;;6.03;;
53309;SDS011;39197;53.200;5.792;2022-12-05T09:27:54;13.73;;;6.40;;
53309;SDS011;39197;53.200;5.792;2022-12-05T09:30:20;14.85;;;5.80;;
53309;SDS011;39197;53.200;5.792;2022-12-05T09:32:46;16.15;;;6.63;;
53309;SDS011;39197;53.200;5.792;2022-12-05T09:35:19;19.83;;;6.65;;
53309;SDS011;39197;53.200;5.792;2022-12-05T09:37:45;14.55;;;5.75;;
53309;SDS011;39197;53.200;5.792;2022-12-05T09:40:14;15.00;;;6.65;;
53309;SDS011;39197;53.200;5.792;2022-12-05T09:42:52;18.05;;;6.60;;
53309;SDS011;39197;53.200;5.792;2022-12-05T09:45:32;20.92;;;7.80;;
53309;SDS011;39197;53.200;5.792;2022-12-05T09:48:35;18.58;;;6.35;;
53309;SDS011;39197;53.200;5.792;2022-12-05T09:51:01;25.33;;;7.63;;
53309;SDS011;39197;53.200;5.792;2022-12-05T09:53:29;23.65;;;8.38;;
53309;SDS011;39197;53.200;5.792;2022-12-05T09:56:05;21.25;;;8.30;;
53309;SDS011;39197;53.200;5.792;2022-12-05T09:58:52;16.95;;;7.15;;
53309;SDS011;39197;53.200;5.792;2022-12-05T10:09:33;14.73;;;6.97;;
53309;SDS011;39197;53.200;5.792;2022-12-05T10:15:31;14.75;;;6.45;;
53309;SDS011;39197;53.200;5.792;2022-12-05T10:18:50;22.38;;;8.27;;
53309;SDS011;39197;53.200;5.792;2022-12-05T10:21:19;19.70;;;7.72;;
53309;SDS011;39197;53.200;5.792;2022-12-05T10:23:53;18.30;;;7.15;;
53309;SDS011;39197;53.200;5.792;2022-12-05T10:26:23;15.75;;;7.13;;
53309;SDS011;39197;53.200;5.792;2022-12-05T10:29:13;15.73;;;6.50;;
53309;SDS011;39197;53.200;5.792;2022-12-05T10:34:22;14.82;;;6.60;;
53309;SDS011;39197;53.200;5.792;2022-12-05T10:37:06;14.23;;;6.95;;
53309;SDS011;39197;53.200;5.792;2022-12-05T10:39:35;15.95;;;7.72;;
53309;SDS011;39197;53.200;5.792;2022-12-05T10:42:02;17.55;;;6.53;;
53309;SDS011;39197;53.200;5.792;2022-12-05T10:44:28;18.73;;;7.75;;
53309;SDS011;39197;53.200;5.792;2022-12-05T10:46:55;19.27;;;8.20;;
53309;SDS011;39197;53.200;5.792;2022-12-05T10:49:20;20.80;;;7.30;;
53309;SDS011;39197;53.200;5.792;2022-12-05T10:51:53;18.45;;;8.63;;
53309;SDS011;39197;53.200;5.792;2022-12-05T10:54:25;18.90;;;8.07;;
53309;SDS011;39197;53.200;5.792;2022-12-05T10:57:19;17.70;;;7.72;;
53309;SDS011;39197;53.200;5.792;2022-12-05T10:59:48;17.73;;;8.13;;
53309;SDS011;39197;53.200;5.792;2022-12-05T11:02:18;15.52;;;6.72;;
53309;SDS011;39197;53.200;5.792;2022-12-05T11:04:55;17.05;;;6.97;;
53309;SDS011;39197;53.200;5.792;2022-12-05T11:07:44;17.45;;;6.47;;
53309;SDS011;39197;53.200;5.792;2022-12-05T11:10:31;14.65;;;6.95;;
53309;SDS011;39197;53.200;5.792;2022-12-05T11:13:13;14.82;;;7.28;;
53309;SDS011;39197;53.200;5.792;2022-12-05T11:22:55;20.33;;;7.40;;
53309;SDS011;39197;53.200;5.792;2022-12-05T11:25:33;20.88;;;6.32;;
53309;SDS011;39197;53.200;5.792;2022-12-05T11:28:45;15.88;;;7.28;;
53309;SDS011;39197;53.200;5.792;2022-12-05T11:33:36;16.35;;;7.50;;
53309;SDS011;39197;53.200;5.792;2022-12-05T11:36:13;16.88;;;6.90;;
53309;SDS011;39197;53.200;5.792;2022-12-05T11:38:44;14.10;;;7.25;;
53309;SDS011;39197;53.200;5.792;2022-12-05T11:46:47;19.08;;;7.15;;
53309;SDS011;39197;53.200;5.792;2022-12-05T11:55:14;20.25;;;6.85;;
53309;SDS011;39197;53.200;5.792;2022-12-05T12:08:40;15.65;;;6.45;;
53309;SDS011;39197;53.200;5.792;2022-12-05T12:11:52;20.95;;;7.28;;
53309;SDS011;39197;53.200;5.792;2022-12-05T12:40:15;19.42;;;7.55;;
53309;SDS011;39197;53.200;5.792;2022-12-05T12:50:45;13.85;;;6.55;;
53309;SDS011;39197;53.200;5.792;2022-12-05T13:01:09;20.50;;;7.10;;
53309;SDS011;39197;53.200;5.792;2022-12-05T13:04:09;18.42;;;6.00;;
53309;SDS011;39197;53.200;5.792;2022-12-05T13:06:40;14.68;;;6.38;;
53309;SDS011;39197;53.200;5.792;2022-12-05T13:09:20;16.00;;;6.18;;
53309;SDS011;39197;53.200;5.792;2022-12-05T13:12:09;16.33;;;6.75;;
53309;SDS011;39197;53.200;5.792;2022-12-05T13:14:38;14.20;;;6.68;;
53309;SDS011;39197;53.200;5.792;2022-12-05T13:17:09;16.27;;;6.47;;
53309;SDS011;39197;53.200;5.792;2022-12-05T13:19:58;16.10;;;6.10;;
53309;SDS011;39197;53.200;5.792;2022-12-05T13:22:24;14.45;;;6.22;;
53309;SDS011;39197;53.200;5.792;2022-12-05T13:24:52;13.35;;;5.97;;
53309;SDS011;39197;53.200;5.792;2022-12-05T13:27:20;11.18;;;5.75;;
53309;SDS011;39197;53.200;5.792;2022-12-05T13:29:58;12.48;;;6.50;;
53309;SDS011;39197;53.200;5.792;2022-12-05T13:34:59;13.27;;;6.20;;
53309;SDS011;39197;53.200;5.792;2022-12-05T13:37:31;12.60;;;4.90;;
53309;SDS011;39197;53.200;5.792;2022-12-05T13:40:27;12.43;;;3.97;;
53309;SDS011;39197;53.200;5.792;2022-12-05T13:43:12;15.48;;;5.70;;
53309;SDS011;39197;53.200;5.792;2022-12-05T13:46:17;13.30;;;5.30;;
53309;SDS011;39197;53.200;5.792;2022-12-05T13:48:46;11.93;;;5.77;;
53309;SDS011;39197;53.200;5.792;2022-12-05T13:51:21;11.90;;;5.55;;
53309;SDS011;39197;53.200;5.792;2022-12-05T13:54:11;14.30;;;5.80;;
53309;SDS011;39197;53.200;5.792;2022-12-05T14:03:03;10.60;;;4.47;;
53309;SDS011;39197;53.200;5.792;2022-12-05T14:08:48;13.18;;;5.60;;
53309;SDS011;39197;53.200;5.792;2022-12-05T14:15:44;14.35;;;4.78;;
53309;SDS011;39197;53.200;5.792;2022-12-05T14:18:15;13.13;;;4.47;;
53309;SDS011;39197;53.200;5.792;2022-12-05T14:32:38;9.80;;;4.50;;
53309;SDS011;39197;53.200;5.792;2022-12-05T14:35:10;14.40;;;4.45;;
53309;SDS011;39197;53.200;5.792;2022-12-05T14:40:35;10.30;;;4.40;;
53309;SDS011;39197;53.200;5.792;2022-12-05T14:50:45;8.43;;;4.13;;
53309;SDS011;39197;53.200;5.792;2022-12-05T14:55:48;16.97;;;5.00;;
53309;SDS011;39197;53.200;5.792;2022-12-05T14:58:24;14.15;;;4.22;;
53309;SDS011;39197;53.200;5.792;2022-12-05T15:01:26;11.77;;;4.35;;
53309;SDS011;39197;53.200;5.792;2022-12-05T15:04:03;17.73;;;4.72;;
53309;SDS011;39197;53.200;5.792;2022-12-05T15:06:45;13.02;;;4.88;;
53309;SDS011;39197;53.200;5.792;2022-12-05T15:09:24;16.90;;;6.17;;
53309;SDS011;39197;53.200;5.792;2022-12-05T15:12:03;14.27;;;5.65;;
53309;SDS011;39197;53.200;5.792;2022-12-05T15:14:36;14.20;;;4.95;;
53309;SDS011;39197;53.200;5.792;2022-12-05T15:17:11;11.80;;;5.10;;
53309;SDS011;39197;53.200;5.792;2022-12-05T15:19:43;14.73;;;6.03;;
53309;SDS011;39197;53.200;5.792;2022-12-05T15:22:14;11.32;;;4.82;;
53309;SDS011;39197;53.200;5.792;2022-12-05T15:24:45;16.08;;;5.50;;
53309;SDS011;39197;53.200;5.792;2022-12-05T15:27:11;15.18;;;4.95;;
53309;SDS011;39197;53.200;5.792;2022-12-05T15:29:38;14.55;;;5.80;;
53309;SDS011;39197;53.200;5.792;2022-12-05T15:32:13;14.70;;;6.63;;
53309;SDS011;39197;53.200;5.792;2022-12-05T15:34:55;19.92;;;6.80;;
53309;SDS011;39197;53.200;5.792;2022-12-05T15:40:18;22.30;;;6.95;;
53309;SDS011;39197;53.200;5.792;2022-12-05T15:42:53;11.55;;;6.18;;
53309;SDS011;39197;53.200;5.792;2022-12-05T15:45:29;14.05;;;6.75;;
53309;SDS011;39197;53.200;5.792;2022-12-05T15:47:56;15.88;;;6.85;;
53309;SDS011;39197;53.200;5.792;2022-12-05T15:50:39;14.88;;;6.60;;
53309;SDS011;39197;53.200;5.792;2022-12-05T15:53:14;18.65;;;8.27;;
53309;SDS011;39197;53.200;5.792;2022-12-05T15:55:49;12.93;;;7.25;;
53309;SDS011;39197;53.200;5.792;2022-12-05T16:01:11;16.23;;;7.35;;
53309;SDS011;39197;53.200;5.792;2022-12-05T16:06:20;13.07;;;6.60;;
53309;SDS011;39197;53.200;5.792;2022-12-05T16:08:52;18.45;;;9.32;;
53309;SDS011;39197;53.200;5.792;2022-12-05T16:11:22;20.55;;;8.27;;
53309;SDS011;39197;53.200;5.792;2022-12-05T16:13:50;18.67;;;7.80;;
53309;SDS011;39197;53.200;5.792;2022-12-05T16:16:45;14.98;;;6.93;;
53309;SDS011;39197;53.200;5.792;2022-12-05T16:22:44;15.85;;;8.90;;
53309;SDS011;39197;53.200;5.792;2022-12-05T16:25:16;15.45;;;7.88;;
53309;SDS011;39197;53.200;5.792;2022-12-05T16:27:55;19.45;;;7.88;;
53309;SDS011;39197;53.200;5.792;2022-12-05T16:30:23;17.73;;;7.88;;
53309;SDS011;39197;53.200;5.792;2022-12-05T16:32:50;17.60;;;8.05;;
53309;SDS011;39197;53.200;5.792;2022-12-05T16:38:29;20.30;;;6.85;;
53309;SDS011;39197;53.200;5.792;2022-12-05T16:40:54;14.57;;;8.07;;
53309;SDS011;39197;53.200;5.792;2022-12-05T16:45:53;19.95;;;8.43;;
53309;SDS011;39197;53.200;5.792;2022-12-05T16:50:49;22.95;;;8.55;;
53309;SDS011;39197;53.200;5.792;2022-12-05T16:53:31;18.45;;;8.18;;
53309;SDS011;39197;53.200;5.792;2022-12-05T16:55:57;24.10;;;9.02;;
53309;SDS011;39197;53.200;5.792;2022-12-05T16:58:24;18.35;;;8.95;;
53309;SDS011;39197;53.200;5.792;2022-12-05T17:00:58;26.48;;;10.45;;
53309;SDS011;39197;53.200;5.792;2022-12-05T17:03:26;26.90;;;10.43;;
53309;SDS011;39197;53.200;5.792;2022-12-05T17:05:53;40.90;;;15.95;;
53309;SDS011;39197;53.200;5.792;2022-12-05T17:08:19;22.75;;;9.27;;
53309;SDS011;39197;53.200;5.792;2022-12-05T17:10:45;17.77;;;8.68;;
53309;SDS011;39197;53.200;5.792;2022-12-05T17:13:14;32.25;;;9.90;;
53309;SDS011;39197;53.200;5.792;2022-12-05T17:15:41;20.55;;;8.43;;
53309;SDS011;39197;53.200;5.792;2022-12-05T17:18:10;29.58;;;8.10;;
53309;SDS011;39197;53.200;5.792;2022-12-05T17:20:40;35.33;;;10.07;;
53309;SDS011;39197;53.200;5.792;2022-12-05T17:23:10;26.10;;;7.78;;
53309;SDS011;39197;53.200;5.792;2022-12-05T17:25:37;22.52;;;7.25;;
53309;SDS011;39197;53.200;5.792;2022-12-05T17:28:05;20.80;;;8.15;;
53309;SDS011;39197;53.200;5.792;2022-12-05T17:30:31;26.13;;;8.10;;
53309;SDS011;39197;53.200;5.792;2022-12-05T17:32:58;20.40;;;6.88;;
53309;SDS011;39197;53.200;5.792;2022-12-05T17:35:26;31.30;;;9.18;;
53309;SDS011;39197;53.200;5.792;2022-12-05T17:37:53;30.80;;;7.22;;
53309;SDS011;39197;53.200;5.792;2022-12-05T17:40:18;22.25;;;6.45;;
53309;SDS011;39197;53.200;5.792;2022-12-05T17:42:44;25.65;;;7.97;;
53309;SDS011;39197;53.200;5.792;2022-12-05T17:45:13;18.08;;;5.82;;
53309;SDS011;39197;53.200;5.792;2022-12-05T17:47:40;14.00;;;6.47;;
53309;SDS011;39197;53.200;5.792;2022-12-05T17:50:09;22.63;;;5.97;;
53309;SDS011;39197;53.200;5.792;2022-12-05T17:52:36;15.50;;;6.47;;
53309;SDS011;39197;53.200;5.792;2022-12-05T17:55:02;22.58;;;7.03;;
53309;SDS011;39197;53.200;5.792;2022-12-05T17:57:28;16.25;;;6.07;;
53309;SDS011;39197;53.200;5.792;2022-12-05T17:59:54;18.60;;;6.32;;
53309;SDS011;39197;53.200;5.792;2022-12-05T18:02:19;17.52;;;6.18;;
53309;SDS011;39197;53.200;5.792;2022-12-05T18:04:45;15.38;;;5.50;;
53309;SDS011;39197;53.200;5.792;2022-12-05T18:07:11;17.35;;;6.97;;
53309;SDS011;39197;53.200;5.792;2022-12-05T18:09:37;23.63;;;5.97;;
53309;SDS011;39197;53.200;5.792;2022-12-05T18:12:02;22.02;;;6.40;;
53309;SDS011;39197;53.200;5.792;2022-12-05T18:14:28;25.80;;;7.40;;
53309;SDS011;39197;53.200;5.792;2022-12-05T18:16:54;23.88;;;8.65;;